Time;durP1;ratioP1;P1;durP2;ratioP2;P2;SDS_P1;SDS_P2;PMS_P1;PMS_P2;Temp;Humidity;BMP_temperature;BMP_pressure;BME280_temperature;BME280_humidity;BME280_pressure;Samples;Min_cycle;Max_cycle;Signal;HPM_P1;HPM_P2
2021/06/19 00:00:35;;;;;;;4.55;2.00;;;;;;;20.67;100.00;99256.14;1768104;81;21475;-66
2021/06/19 00:03:03;;;;;;;2.70;1.82;;;;;;;20.67;100.00;99261.50;1768110;81;20877;-67
2021/06/19 00:05:32;;;;;;;4.97;1.90;;;;;;;20.65;100.00;99254.87;1768384;80;20880;-68
2021/06/19 00:08:02;;;;;;;3.60;1.60;;;;;;;20.63;100.00;99255.41;1768100;80;21031;-66
2021/06/19 00:10:32;;;;;;;2.90;1.50;;;;;;;20.63;100.00;99251.39;1768459;80;20904;-68
2021/06/19 00:13:00;;;;;;;4.72;2.02;;;;;;;20.63;100.00;99255.88;1768018;80;21204;-68
2021/06/19 00:15:29;;;;;;;3.87;1.65;;;;;;;20.65;100.00;99252.66;1768395;80;21474;-67
2021/06/19 00:17:58;;;;;;;4.33;1.87;;;;;;;20.65;100.00;99248.17;1764810;80;20971;-68
2021/06/19 00:20:26;;;;;;;2.80;1.45;;;;;;;20.65;100.00;99252.19;1719165;82;20932;-67
2021/06/19 00:22:54;;;;;;;2.35;1.80;;;;;;;20.65;100.00;99256.21;1719240;82;20928;-68
2021/06/19 00:25:25;;;;;;;4.78;1.60;;;;;;;20.67;100.00;99254.33;1719257;82;21130;-68
2021/06/19 00:27:55;;;;;;;6.27;2.07;;;;;;;20.68;100.00;99253.39;1719399;83;21434;-68
2021/06/19 00:30:23;;;;;;;5.37;1.67;;;;;;;20.68;100.00;99255.20;1719226;83;20959;-68
2021/06/19 00:32:52;;;;;;;3.67;1.67;;;;;;;20.65;100.00;99252.19;1719223;83;21426;-66
2021/06/19 00:35:21;;;;;;;4.17;1.50;;;;;;;20.67;100.00;99260.16;1719105;82;20944;-68
2021/06/19 00:37:51;;;;;;;2.27;1.22;;;;;;;20.66;100.00;99253.93;1719164;82;21152;-66
2021/06/19 00:40:20;;;;;;;1.87;1.40;;;;;;;20.67;100.00;99257.48;1719302;82;21414;-67
2021/06/19 00:43:00;;;;;;;1.70;1.60;;;;;;;20.65;100.00;99262.91;1719229;82;21019;-67
2021/06/19 00:45:32;;;;;;;3.70;1.80;;;;;;;20.65;100.00;99267.41;1719099;82;20879;-67
2021/06/19 00:48:00;;;;;;;5.30;1.98;;;;;;;20.66;100.00;99263.78;1719396;82;26993;-67
2021/06/19 00:50:28;;;;;;;4.37;1.70;;;;;;;20.66;100.00;99271.83;1719375;83;21120;-67
2021/06/19 00:52:57;;;;;;;5.75;1.90;;;;;;;20.65;100.00;99268.27;1719085;82;20875;-67
2021/06/19 00:55:25;;;;;;;5.35;2.20;;;;;;;20.63;100.00;99271.49;1719590;83;21477;-66
2021/06/19 00:57:53;;;;;;;6.25;1.77;;;;;;;20.63;100.00;99267.47;1719069;82;20951;-66
2021/06/19 01:00:23;;;;;;;6.60;1.82;;;;;;;20.62;100.00;99267.08;1719158;82;20967;-66
2021/06/19 01:02:57;;;;;;;7.08;2.10;;;;;;;20.62;100.00;99270.22;1719200;82;21137;-66
2021/06/19 01:05:27;;;;;;;4.67;2.12;;;;;;;20.60;100.00;99267.61;1719430;82;20944;-65
2021/06/19 01:07:56;;;;;;;3.27;1.70;;;;;;;20.61;100.00;99265.80;1719227;82;21445;-66
2021/06/19 01:10:28;;;;;;;6.40;1.62;;;;;;;20.60;100.00;99276.13;1719438;83;21450;-67
2021/06/19 01:13:00;;;;;;;3.62;1.35;;;;;;;20.59;100.00;99269.02;1719322;82;20923;-67
2021/06/19 01:15:29;;;;;;;4.58;1.72;;;;;;;20.59;100.00;99265.88;1714797;82;21122;-66
2021/06/19 01:17:57;;;;;;;6.12;2.15;;;;;;;20.60;100.00;99264.06;1719055;82;20891;-66
2021/06/19 01:20:25;;;;;;;4.70;1.98;;;;;;;20.59;100.00;99269.89;1770974;81;20936;-66
2021/06/19 01:22:55;;;;;;;5.17;1.90;;;;;;;20.57;100.00;99266.88;1773544;81;20996;-67
2021/06/19 01:25:32;;;;;;;3.42;1.85;;;;;;;20.54;100.00;99266.55;1773815;81;21036;-67
2021/06/19 01:27:59;;;;;;;3.72;1.50;;;;;;;20.54;100.00;99264.34;1773572;81;21426;-66
2021/06/19 01:30:29;;;;;;;4.45;1.80;;;;;;;20.52;100.00;99265.75;1773694;81;20973;-67
2021/06/19 01:32:58;;;;;;;2.42;1.62;;;;;;;20.50;100.00;99263.61;1773448;81;21403;-67
2021/06/19 01:35:26;;;;;;;4.10;1.47;;;;;;;20.48;100.00;99258.78;1773790;81;20945;-66
2021/06/19 01:37:57;;;;;;;3.72;1.70;;;;;;;20.49;100.00;99255.64;1773496;81;21036;-66
2021/06/19 01:40:30;;;;;;;4.35;1.70;;;;;;;20.46;100.00;99254.44;1773975;81;21106;-67
2021/06/19 01:42:59;;;;;;;3.62;1.70;;;;;;;20.45;100.00;99248.67;1773832;81;21387;-67
2021/06/19 01:45:31;;;;;;;5.20;2.47;;;;;;;20.42;100.00;99245.66;1773933;81;20968;-67
2021/06/19 01:48:05;;;;;;;7.58;2.05;;;;;;;20.38;100.00;99253.41;1773714;80;20963;-67
2021/06/19 01:50:34;;;;;;;6.05;2.40;;;;;;;20.35;100.00;99254.41;1773892;81;20936;-67
2021/06/19 01:53:02;;;;;;;6.15;1.77;;;;;;;20.34;100.00;99255.81;1773675;81;21142;-66
2021/06/19 01:55:31;;;;;;;3.72;1.85;;;;;;;20.30;100.00;99252.37;1773950;81;21419;-66
2021/06/19 01:58:00;;;;;;;3.83;2.17;;;;;;;20.28;100.00;99250.70;1773556;81;20944;-66
2021/06/19 02:00:31;;;;;;;3.08;1.70;;;;;;;20.23;100.00;99256.25;1773993;81;21494;-66
2021/06/19 02:02:59;;;;;;;1.95;1.65;;;;;;;20.21;100.00;99255.45;1773585;81;21452;-66
2021/06/19 02:05:28;;;;;;;4.67;1.62;;;;;;;20.21;100.00;99266.16;1773658;81;21509;-67
2021/06/19 02:08:02;;;;;;;4.92;1.80;;;;;;;20.19;100.00;99265.83;1773607;81;21006;-66
2021/06/19 02:10:35;;;;;;;4.28;1.80;;;;;;;20.17;100.00;99265.89;1774032;81;20940;-66
2021/06/19 02:13:05;;;;;;;4.10;1.72;;;;;;;20.15;100.00;99266.44;1773879;81;20960;-65
2021/06/19 02:15:36;;;;;;;6.83;1.62;;;;;;;20.12;100.00;99275.94;1773841;81;21407;-65
2021/06/19 02:18:04;;;;;;;4.37;1.80;;;;;;;20.08;100.00;99267.16;1773944;81;21108;-65
2021/06/19 02:20:32;;;;;;;4.75;2.20;;;;;;;20.07;100.00;99267.23;1770958;81;20858;-64
2021/06/19 02:23:01;;;;;;;13.78;2.40;;;;;;;20.03;100.00;99275.86;1770644;81;20940;-64
2021/06/19 02:25:29;;;;;;;5.67;1.87;;;;;;;20.02;100.00;99270.57;1770634;81;20964;-64
2021/06/19 02:28:01;;;;;;;3.22;1.80;;;;;;;20.01;100.00;99270.17;1770699;81;20959;-65
2021/06/19 02:30:35;;;;;;;3.47;1.80;;;;;;;20.01;100.00;99276.40;1770804;80;21135;-67
2021/06/19 02:33:04;;;;;;;3.08;1.80;;;;;;;19.99;100.00;99278.27;1770581;81;20937;-68
2021/06/19 02:35:34;;;;;;;7.58;2.20;;;;;;;19.98;100.00;99278.33;1770992;81;20944;-67
2021/06/19 02:38:24;;;;;;;4.12;2.00;;;;;;;19.96;100.00;99278.86;1770698;81;20901;-68
2021/06/19 02:40:53;;;;;;;4.90;2.22;;;;;;;19.95;100.00;99286.50;1645101;87;21558;-64
2021/06/19 02:43:21;;;;;;;5.75;2.40;;;;;;;19.95;100.00;99283.35;1645022;87;21854;-67
2021/06/19 02:45:49;;;;;;;7.70;2.65;;;;;;;19.94;100.00;99282.95;1645212;87;21007;-67
2021/06/19 02:48:18;;;;;;;7.22;2.70;;;;;;;19.92;100.00;99284.82;1644955;87;21014;-67
2021/06/19 02:50:47;;;;;;;5.05;1.95;;;;;;;19.91;100.00;99288.44;1644893;87;21038;-67
2021/06/19 02:53:15;;;;;;;5.75;2.30;;;;;;;19.92;100.00;99282.61;1644826;87;21050;-66
2021/06/19 02:55:44;;;;;;;5.78;2.30;;;;;;;19.94;100.00;99286.09;1645163;87;21983;-67
2021/06/19 02:58:13;;;;;;;4.33;2.27;;;;;;;19.95;100.00;99284.69;1644676;87;21011;-67
2021/06/19 03:00:42;;;;;;;5.50;2.40;;;;;;;19.97;100.00;99286.84;1645218;87;21015;-67
2021/06/19 03:03:10;;;;;;;6.10;2.08;;;;;;;19.98;100.00;99291.25;1638733;87;21034;-67
2021/06/19 03:05:38;;;;;;;6.10;2.50;;;;;;;20.02;100.00;99293.34;1645244;87;21468;-67
2021/06/19 03:08:08;;;;;;;5.72;2.35;;;;;;;20.05;100.00;99295.41;1644979;87;21477;-66
2021/06/19 03:10:39;;;;;;;8.68;2.75;;;;;;;20.06;100.00;99298.96;1644911;87;20911;-66
2021/06/19 03:13:06;;;;;;;5.72;2.37;;;;;;;20.08;100.00;99301.98;1644990;87;20983;-67
2021/06/19 03:15:35;;;;;;;4.83;2.60;;;;;;;20.12;100.00;99302.25;1645324;87;21105;-68
2021/06/19 03:18:05;;;;;;;6.15;2.15;;;;;;;20.13;100.00;99307.14;1644943;87;21114;-68
2021/06/19 03:20:33;;;;;;;4.95;2.00;;;;;;;20.15;100.00;99307.08;1645193;87;21131;-66
2021/06/19 03:23:02;;;;;;;7.08;2.12;;;;;;;20.17;100.00;99314.11;1644805;87;22149;-67
2021/06/19 03:25:33;;;;;;;4.97;2.50;;;;;;;20.19;100.00;99305.54;1645161;87;21005;-67
2021/06/19 03:28:03;;;;;;;10.00;2.08;;;;;;;20.20;100.00;99310.42;1642779;87;21782;-67
2021/06/19 03:30:33;;;;;;;3.47;1.72;;;;;;;20.22;100.00;99307.21;1645247;87;20907;-67
2021/06/19 03:33:01;;;;;;;3.98;2.20;;;;;;;20.26;100.00;99310.16;1644971;87;21114;-66
2021/06/19 03:35:30;;;;;;;2.62;2.08;;;;;;;20.32;100.00;99311.23;1645174;87;20986;-67
2021/06/19 03:37:58;;;;;;;4.20;2.60;;;;;;;20.35;100.00;99307.98;1644922;87;20915;-66
2021/06/19 03:40:27;;;;;;;4.87;2.08;;;;;;;20.37;100.00;99303.44;1660216;85;21007;-67
2021/06/19 03:42:55;;;;;;;2.55;1.82;;;;;;;20.41;100.00;99307.75;1664954;85;21101;-67
2021/06/19 03:45:27;;;;;;;4.62;2.50;;;;;;;20.47;100.00;99298.58;1665163;85;21126;-66
2021/06/19 03:47:56;;;;;;;2.70;2.05;;;;;;;20.53;100.00;99306.81;1664916;86;20934;-67
2021/06/19 03:50:25;;;;;;;2.77;2.25;;;;;;;20.57;100.00;99310.62;1664921;86;21426;-67
2021/06/19 03:52:54;;;;;;;6.80;2.58;;;;;;;20.61;100.00;99311.36;1665257;86;21517;-67
2021/06/19 03:55:22;;;;;;;2.85;2.17;;;;;;;20.65;100.00;99308.95;1664928;85;20919;-66
2021/06/19 03:57:50;;;;;;;4.50;2.22;;;;;;;20.71;100.00;99312.23;1664879;86;21164;-67
2021/06/19 04:00:21;;;;;;;3.25;2.22;;;;;;;20.79;100.00;99297.61;1664817;85;21462;-67
2021/06/19 04:02:49;;;;;;;3.92;2.20;;;;;;;20.85;100.00;99306.74;1664994;86;21031;-67
2021/06/19 04:05:18;;;;;;;6.53;2.25;;;;;;;20.87;100.00;99302.18;1664858;85;20922;-67
2021/06/19 04:07:46;;;;;;;3.25;2.15;;;;;;;20.91;100.00;99306.46;1665197;85;21449;-67
2021/06/19 04:10:16;;;;;;;6.15;2.20;;;;;;;20.99;100.00;99306.98;1664973;86;20939;-66
2021/06/19 04:12:45;;;;;;;5.17;2.12;;;;;;;21.04;100.00;99304.48;1664934;85;21015;-66
2021/06/19 04:15:13;;;;;;;7.03;2.83;;;;;;;21.10;100.00;99314.06;1665231;85;21469;-66
2021/06/19 04:17:42;;;;;;;4.53;2.20;;;;;;;21.16;100.00;99312.91;1665097;85;21034;-67
2021/06/19 04:20:11;;;;;;;2.60;2.20;;;;;;;21.19;100.00;99311.42;1665015;85;21038;-66
2021/06/19 04:22:39;;;;;;;4.90;2.47;;;;;;;21.25;100.00;99312.03;1665205;85;21089;-67
2021/06/19 04:25:09;;;;;;;4.92;2.85;;;;;;;21.30;100.00;99315.87;1664938;85;21514;-67
2021/06/19 04:27:52;;;;;;;6.42;3.33;;;;;;;21.36;100.00;99324.97;1665110;85;21525;-67
2021/06/19 04:30:21;;;;;;;4.92;2.72;;;;;;;21.42;100.00;99323.34;1664847;86;21014;-67
2021/06/19 04:32:49;;;;;;;4.85;2.60;;;;;;;21.52;100.00;99319.75;1665238;85;20880;-67
2021/06/19 04:35:17;;;;;;;6.37;4.12;;;;;;;21.60;100.00;99323.80;1664916;85;21157;-67
2021/06/19 04:37:45;;;;;;;5.55;3.83;;;;;;;21.67;100.00;99320.34;1664905;85;21430;-66
2021/06/19 04:42:47;;;;;;;7.67;5.15;;;;;;;21.80;100.00;99317.48;1644118;86;21070;-67
2021/06/19 04:45:14;;;;;;;6.12;5.25;;;;;;;21.88;100.00;99315.30;1644412;87;21133;-67
2021/06/19 04:47:42;;;;;;;6.75;4.75;;;;;;;21.93;100.00;99320.44;1644324;86;21135;-67
2021/06/19 04:50:12;;;;;;;7.50;6.20;;;;;;;21.91;100.00;99315.14;1644074;86;21841;-66
2021/06/19 04:52:41;;;;;;;9.98;7.60;;;;;;;21.94;100.00;99315.46;1644196;86;21502;-67
2021/06/19 04:55:16;;;;;;;7.90;6.87;;;;;;;21.93;100.00;99307.87;1644111;87;21023;-68
2021/06/19 04:57:44;;;;;;;6.58;5.65;;;;;;;21.93;100.00;99302.98;1644213;86;21054;-68
2021/06/19 05:00:13;;;;;;;11.08;6.35;;;;;;;21.97;100.00;99306.78;1644355;86;21690;-67
2021/06/19 05:02:41;;;;;;;8.38;6.25;;;;;;;22.05;100.00;99303.73;1644194;86;21224;-67
2021/06/19 05:05:10;;;;;;;7.17;6.20;;;;;;;22.11;100.00;99303.91;1644164;86;20911;-66
2021/06/19 05:07:38;;;;;;;7.00;5.97;;;;;;;22.17;100.00;99307.62;1644140;87;21063;-66
2021/06/19 05:10:08;;;;;;;7.83;6.37;;;;;;;22.25;100.00;99307.66;1644230;87;20923;-65
2021/06/19 05:12:42;;;;;;;7.53;6.00;;;;;;;22.32;100.00;99308.69;1644182;86;21152;-67
2021/06/19 05:15:08;;;;;;;7.40;6.00;;;;;;;22.43;100.00;99307.18;1644453;86;20970;-67
2021/06/19 05:17:38;;;;;;;11.08;7.10;;;;;;;22.54;100.00;99312.86;1644066;86;21055;-67
2021/06/19 05:20:07;;;;;;;7.70;6.92;;;;;;;22.65;100.00;99319.49;1644349;87;21041;-67
2021/06/19 05:22:35;;;;;;;11.50;7.70;;;;;;;22.72;100.00;99313.74;1644239;87;20975;-68
2021/06/19 05:25:04;;;;;;;8.65;7.83;;;;;;;22.78;100.00;99313.89;1644484;86;21324;-68
2021/06/19 05:27:32;;;;;;;7.83;7.03;;;;;;;22.80;100.00;99311.55;1644089;86;20911;-68
2021/06/19 05:30:00;;;;;;;8.50;6.42;;;;;;;22.85;100.00;99313.98;1644428;86;20970;-66
2021/06/19 05:32:28;;;;;;;8.88;7.25;;;;;;;22.89;100.00;99316.91;1644235;86;20979;-68
2021/06/19 05:34:56;;;;;;;10.90;7.58;;;;;;;22.93;100.00;99318.00;1644434;87;21053;-68
2021/06/19 05:37:23;;;;;;;12.80;7.87;;;;;;;22.97;100.00;99312.45;1644233;86;21158;-67
2021/06/19 05:39:54;;;;;;;9.53;8.55;;;;;;;22.99;100.00;99310.08;1649369;85;20880;-67
2021/06/19 05:42:22;;;;;;;8.45;7.30;;;;;;;23.05;100.00;99317.81;1664879;86;20999;-67
2021/06/19 05:44:50;;;;;;;10.93;8.13;;;;;;;23.15;100.00;99327.12;1665237;86;21022;-65
2021/06/19 05:47:18;;;;;;;9.28;7.37;;;;;;;23.23;100.00;99332.12;1665121;85;21078;-59
2021/06/19 05:49:46;;;;;;;10.23;8.33;;;;;;;23.30;100.00;99332.17;1665184;85;21193;-64
2021/06/19 05:52:14;;;;;;;10.10;8.80;;;;;;;23.36;100.00;99330.96;1665686;86;20911;-70
2021/06/19 05:54:43;;;;;;;12.05;7.83;;;;;;;23.39;100.00;99335.70;1665132;85;20912;-68
2021/06/19 05:57:11;;;;;;;9.43;7.35;;;;;;;23.45;100.00;99334.01;1665126;85;20971;-66
2021/06/19 05:59:40;;;;;;;8.03;6.80;;;;;;;23.53;100.00;99332.23;1665148;86;21588;-63
2021/06/19 06:02:07;;;;;;;9.25;7.28;;;;;;;23.61;100.00;99336.74;1664835;86;21493;-64
2021/06/19 06:04:35;;;;;;;11.45;7.87;;;;;;;23.66;100.00;99336.03;1664900;85;21097;-64
2021/06/19 06:07:04;;;;;;;11.15;8.60;;;;;;;23.68;100.00;99334.60;1664847;85;20963;-64
2021/06/19 06:09:32;;;;;;;10.93;8.30;;;;;;;23.69;100.00;99331.83;1665145;85;20999;-69
2021/06/19 06:12:00;;;;;;;9.48;8.03;;;;;;;23.70;100.00;99330.87;1665083;86;21398;-62
2021/06/19 06:14:28;;;;;;;12.35;7.08;;;;;;;23.73;100.00;99328.00;1665174;86;21108;-63
2021/06/19 06:16:56;;;;;;;7.28;6.08;;;;;;;23.82;100.00;99327.95;1664766;86;20943;-68
2021/06/19 06:19:25;;;;;;;9.55;7.47;;;;;;;23.94;100.00;99329.94;1664827;86;20887;-68
2021/06/19 06:21:53;;;;;;;7.97;7.17;;;;;;;24.03;100.00;99329.40;1664977;85;21014;-67
2021/06/19 06:24:21;;;;;;;11.28;7.80;;;;;;;24.10;100.00;99323.17;1664971;85;21006;-63
2021/06/19 06:26:49;;;;;;;9.00;7.60;;;;;;;24.16;100.00;99334.97;1664979;85;21121;-62
2021/06/19 06:29:17;;;;;;;8.65;7.17;;;;;;;24.20;100.00;99332.48;1664980;85;21528;-63
2021/06/19 06:31:44;;;;;;;6.65;5.97;;;;;;;24.24;100.00;99321.04;1665026;85;21000;-63
2021/06/19 06:34:13;;;;;;;7.42;6.50;;;;;;;24.34;100.00;99323.13;1664993;85;20919;-66
2021/06/19 06:36:40;;;;;;;10.03;6.12;;;;;;;24.46;100.00;99326.44;1664993;85;20956;-66
2021/06/19 06:39:08;;;;;;;6.90;6.12;;;;;;;24.42;100.00;99326.72;1665157;85;21186;-65
2021/06/19 06:41:37;;;;;;;8.83;6.90;;;;;;;24.36;100.00;99319.86;1655590;86;21019;-66
2021/06/19 06:44:05;;;;;;;8.50;7.42;;;;;;;24.36;100.00;99321.69;1651951;86;21443;-68
2021/06/19 06:46:33;;;;;;;9.10;7.03;;;;;;;24.37;100.00;99317.55;1647402;86;20928;-68
2021/06/19 06:49:01;;;;;;;10.05;7.37;;;;;;;24.44;100.00;99323.45;1651701;87;21063;-67
2021/06/19 06:51:29;;;;;;;7.35;6.55;;;;;;;24.48;100.00;99312.38;1651753;86;21099;-67
2021/06/19 06:53:57;;;;;;;8.18;6.70;;;;;;;24.52;100.00;99311.72;1651756;87;21044;-67
2021/06/19 06:56:25;;;;;;;7.80;6.35;;;;;;;24.55;100.00;99306.13;1651776;86;20999;-68
2021/06/19 06:58:52;;;;;;;10.05;6.55;;;;;;;24.59;100.00;99310.38;1651710;86;20932;-68
2021/06/19 07:01:21;;;;;;;9.70;7.08;;;;;;;24.63;100.00;99317.36;1651661;86;20960;-68
2021/06/19 07:03:54;;;;;;;15.60;7.00;;;;;;;24.69;100.00;99311.59;1651819;87;21202;-67
2021/06/19 07:06:20;;;;;;;9.58;5.95;;;;;;;24.74;100.00;99316.70;1651833;87;20910;-65
2021/06/19 07:08:47;;;;;;;8.53;6.17;;;;;;;24.76;100.00;99322.39;1651733;87;21518;-65
2021/06/19 07:11:15;;;;;;;7.20;5.28;;;;;;;24.86;100.00;99319.12;1651964;87;21023;-66
2021/06/19 07:13:44;;;;;;;9.75;5.30;;;;;;;25.02;100.00;99311.36;1651883;87;21024;-67
2021/06/19 07:16:12;;;;;;;4.78;3.65;;;;;;;25.19;100.00;99312.16;1651779;86;21502;-67
2021/06/19 07:18:40;;;;;;;8.20;3.90;;;;;;;25.26;100.00;99308.97;1651727;87;21462;-67
2021/06/19 07:21:08;;;;;;;8.38;4.25;;;;;;;25.18;100.00;99297.79;1652010;86;20928;-66
2021/06/19 07:23:37;;;;;;;5.67;4.67;;;;;;;24.98;100.00;99296.31;1651607;86;21446;-66
2021/06/19 07:26:05;;;;;;;6.87;5.12;;;;;;;24.94;100.00;99295.23;1649464;85;20882;-66
2021/06/19 07:28:35;;;;;;;5.10;3.85;;;;;;;24.98;100.00;99297.67;1657242;85;21174;-66
2021/06/19 07:31:02;;;;;;;6.53;4.15;;;;;;;25.12;100.00;99299.53;1656384;85;21007;-67
2021/06/19 07:33:31;;;;;;;4.87;4.10;;;;;;;25.16;100.00;99294.32;1653478;86;21561;-65
2021/06/19 07:36:00;;;;;;;6.05;4.20;;;;;;;25.17;100.00;99299.23;1651925;87;21616;-67
2021/06/19 07:38:30;;;;;;;6.45;4.30;;;;;;;25.13;100.00;99297.70;1651837;87;21573;-67
2021/06/19 07:40:57;;;;;;;10.35;4.55;;;;;;;25.08;100.00;99300.20;1647534;86;21142;-67
2021/06/19 07:43:25;;;;;;;5.03;4.53;;;;;;;25.20;100.00;99310.70;1641414;87;21126;-67
2021/06/19 07:45:53;;;;;;;7.47;4.85;;;;;;;25.38;100.00;99312.23;1641742;86;20879;-66
2021/06/19 07:48:21;;;;;;;6.08;4.60;;;;;;;25.53;100.00;99308.16;1629766;86;20930;-67
2021/06/19 07:50:50;;;;;;;6.12;4.62;;;;;;;25.68;100.00;99312.14;1641521;87;20982;-68
2021/06/19 07:53:17;;;;;;;15.35;5.70;;;;;;;25.87;100.00;99311.79;1641482;86;21095;-66
2021/06/19 07:55:46;;;;;;;8.35;4.70;;;;;;;26.03;100.00;99313.02;1641126;86;21533;-65
2021/06/19 07:58:14;;;;;;;8.13;3.90;;;;;;;26.16;100.00;99308.52;1641258;86;20978;-67
2021/06/19 08:00:43;;;;;;;10.65;4.20;;;;;;;26.20;100.00;99300.58;1629916;86;20966;-65
2021/06/19 08:03:11;;;;;;;7.65;4.17;;;;;;;26.16;100.00;99307.66;1641229;86;20950;-72
2021/06/19 08:05:39;;;;;;;6.83;4.00;;;;;;;26.20;100.00;99311.40;1628926;88;21067;-65
2021/06/19 08:08:07;;;;;;;5.03;3.55;;;;;;;26.30;100.00;99305.75;1640906;87;20938;-68
2021/06/19 08:10:36;;;;;;;4.37;3.50;;;;;;;26.42;100.00;99302.72;1641649;86;20989;-65
2021/06/19 08:13:04;;;;;;;4.70;3.33;;;;;;;26.54;100.00;99294.28;1628963;86;21531;-67
2021/06/19 08:15:34;;;;;;;5.72;3.50;;;;;;;26.69;100.00;99295.91;1640259;87;21042;-66
2021/06/19 08:18:03;;;;;;;7.25;3.62;;;;;;;26.65;100.00;99289.84;1628703;86;21633;-68
2021/06/19 08:20:31;;;;;;;9.43;3.87;;;;;;;26.59;100.00;99289.41;1631155;87;20964;-67
2021/06/19 08:22:59;;;;;;;5.37;3.40;;;;;;;26.66;100.00;99290.72;1640514;87;21859;-68
2021/06/19 08:25:27;;;;;;;24.18;3.83;;;;;;;26.82;100.00;99285.95;1628868;86;21521;-67
2021/06/19 08:27:55;;;;;;;6.65;2.98;;;;;;;27.09;100.00;99287.73;1640266;87;21065;-67
2021/06/19 08:30:25;;;;;;;4.55;3.27;;;;;;;27.21;100.00;99283.66;1641324;86;21811;-68
2021/06/19 08:32:53;;;;;;;5.35;3.35;;;;;;;27.23;100.00;99283.55;1629764;88;20943;-68
2021/06/19 08:35:22;;;;;;;7.87;3.90;;;;;;;27.28;100.00;99279.52;1635098;86;20982;-67
2021/06/19 08:37:50;;;;;;;5.00;3.02;;;;;;;27.39;100.00;99276.03;1639569;86;20991;-68
2021/06/19 08:40:17;;;;;;;3.50;3.20;;;;;;;27.47;100.00;99276.86;1643084;85;21059;-67
2021/06/19 08:42:45;;;;;;;5.45;3.50;;;;;;;27.50;100.00;99281.56;1663121;86;21881;-68
2021/06/19 08:45:13;;;;;;;5.12;3.22;;;;;;;27.40;100.00;99279.61;1662532;86;21545;-67
2021/06/19 08:47:40;;;;;;;4.30;2.92;;;;;;;27.14;100.00;99277.44;1662146;86;21454;-67
2021/06/19 08:50:13;;;;;;;3.60;2.70;;;;;;;26.89;100.00;99272.37;1661967;86;21596;-67
2021/06/19 08:52:41;;;;;;;19.17;3.67;;;;;;;26.58;100.00;99278.20;1662178;86;21015;-67
2021/06/19 08:55:15;;;;;;;3.58;3.12;;;;;;;26.31;100.00;99280.92;1661768;86;21154;-67
2021/06/19 08:57:43;;;;;;;4.90;3.20;;;;;;;26.25;100.00;99277.28;1661330;86;20995;-67
2021/06/19 09:00:12;;;;;;;4.03;3.25;;;;;;;26.38;100.00;99285.45;1662669;85;21035;-67
2021/06/19 09:02:40;;;;;;;3.83;3.30;;;;;;;26.59;100.00;99288.92;1661620;86;20928;-67
2021/06/19 09:05:12;;;;;;;6.10;3.40;;;;;;;26.76;100.00;99284.17;1661414;86;20994;-66
2021/06/19 09:07:46;;;;;;;3.58;3.27;;;;;;;26.91;100.00;99280.38;1661631;86;21178;-67
2021/06/19 09:10:36;;;;;;;3.60;3.08;;;;;;;27.09;100.00;99283.19;1661868;86;21004;-73
2021/06/19 09:13:11;;;;;;;2.90;2.70;;;;;;;27.20;100.00;99280.57;1661671;86;20955;-73
2021/06/19 09:15:54;;;;;;;3.27;2.52;;;;;;;27.15;100.00;99269.20;1661747;86;20999;-73
2021/06/19 09:18:24;;;;;;;9.75;3.52;;;;;;;27.13;100.00;99264.88;1662117;86;20947;-69
2021/06/19 09:21:03;;;;;;;4.03;3.37;;;;;;;27.10;100.00;99266.45;1661499;86;21017;-72
2021/06/19 09:23:43;;;;;;;6.40;3.40;;;;;;;27.10;100.00;99262.39;1661761;86;20876;-67
2021/06/19 09:26:19;;;;;;;4.12;3.30;;;;;;;27.08;100.00;99265.70;1661586;86;21628;-68
2021/06/19 09:29:10;;;;;;;3.77;3.27;;;;;;;26.97;100.00;99264.59;1661788;86;20931;-68
2021/06/19 09:31:48;;;;;;;8.58;3.30;;;;;;;26.99;100.00;99269.93;1661507;86;21053;-69
2021/06/19 09:34:19;;;;;;;4.05;3.08;;;;;;;27.05;100.00;99265.44;1661833;86;21108;-68
2021/06/19 09:36:51;;;;;;;5.53;3.05;;;;;;;27.09;100.00;99255.24;1661482;86;21408;-68
2021/06/19 09:39:24;;;;;;;11.22;2.90;;;;;;;27.11;100.00;99258.22;1661640;86;20931;-73
2021/06/19 09:42:01;;;;;;;3.10;2.80;;;;;;;27.18;100.00;99262.21;1661356;85;20940;-68
2021/06/19 09:44:46;;;;;;;6.35;3.33;;;;;;;27.28;100.00;99264.63;1661584;86;21525;-68
2021/06/19 09:47:20;;;;;;;5.58;2.80;;;;;;;27.35;100.00;99265.05;1661445;86;21211;-69
2021/06/19 09:49:47;;;;;;;3.05;2.65;;;;;;;27.29;100.00;99261.43;1661058;86;20956;-69
2021/06/19 09:52:15;;;;;;;4.17;2.72;;;;;;;27.38;100.00;99256.69;1640257;86;20951;-69
2021/06/19 09:54:48;;;;;;;4.42;2.55;;;;;;;27.50;100.00;99265.79;1661327;86;21038;-69
2021/06/19 09:57:18;;;;;;;2.58;2.37;;;;;;;27.56;100.00;99254.02;1603688;89;21434;-69
2021/06/19 09:59:46;;;;;;;6.58;2.60;;;;;;;27.72;100.00;99252.41;1661434;86;21158;-69
2021/06/19 10:02:27;;;;;;;4.37;2.52;;;;;;;27.88;100.00;99245.34;1661578;86;21049;-69
2021/06/19 10:04:58;;;;;;;4.08;2.33;;;;;;;28.02;100.00;99248.39;1661485;86;21002;-69
2021/06/19 10:07:28;;;;;;;2.95;2.50;;;;;;;28.11;100.00;99249.04;1661956;86;20971;-69
2021/06/19 10:09:58;;;;;;;2.67;2.15;;;;;;;28.20;100.00;99242.91;1661812;86;20916;-68
2021/06/19 10:12:30;;;;;;;2.75;2.30;;;;;;;28.28;100.00;99243.21;1661601;86;21238;-68
2021/06/19 10:15:06;;;;;;;2.83;2.30;;;;;;;28.34;100.00;99240.52;1661345;86;21016;-68
2021/06/19 10:17:40;;;;;;;5.35;2.33;;;;;;;28.35;100.00;99236.81;1660879;86;20915;-68
2021/06/19 10:20:15;;;;;;;9.15;2.42;;;;;;;28.31;100.00;99229.91;1661400;86;21011;-68
2021/06/19 10:22:44;;;;;;;3.20;2.17;;;;;;;28.30;100.00;99232.23;1661883;86;20959;-69
2021/06/19 10:25:15;;;;;;;2.85;2.50;;;;;;;28.22;100.00;99226.89;1661647;86;21450;-69
2021/06/19 10:27:49;;;;;;;10.13;2.08;;;;;;;28.08;100.00;99222.16;1661641;86;20884;-69
2021/06/19 10:30:18;;;;;;;9.50;2.33;;;;;;;27.97;100.00;99220.77;1661779;86;21564;-68
2021/06/19 10:32:51;;;;;;;3.20;2.40;;;;;;;27.95;100.00;99216.81;1661847;86;21046;-68
2021/06/19 10:35:23;;;;;;;3.92;2.27;;;;;;;27.95;100.00;99222.23;1661645;86;20999;-68
2021/06/19 10:37:51;;;;;;;3.45;2.27;;;;;;;27.96;100.00;99222.61;1661997;86;21415;-69
2021/06/19 10:40:28;;;;;;;4.28;2.00;;;;;;;28.07;100.00;99228.56;1661539;86;20987;-69
2021/06/19 10:43:22;;;;;;;4.20;2.25;;;;;;;28.16;100.00;99216.52;1661718;86;20956;-69
2021/06/19 10:45:47;;;;;;;2.12;1.87;;;;;;;28.34;100.00;99209.31;1661228;86;21093;-68
2021/06/19 10:48:19;;;;;;;3.77;1.80;;;;;;;28.55;100.00;99211.73;1661899;86;20951;-67
2021/06/19 10:50:53;;;;;;;17.80;3.52;;;;;;;28.57;100.00;99206.18;1661794;86;21160;-68
2021/06/19 10:53:20;;;;;;;5.75;2.45;;;;;;;28.55;100.00;99210.37;1661241;86;21010;-68
2021/06/19 10:55:59;;;;;;;60.12;8.80;;;;;;;28.64;100.00;99211.00;1661664;86;21006;-68
2021/06/19 10:58:31;;;;;;;21.07;4.30;;;;;;;28.78;100.00;99210.76;1661052;86;20983;-68
2021/06/19 11:01:00;;;;;;;5.25;2.60;;;;;;;28.94;100.00;99212.30;1661564;86;20967;-68
2021/06/19 11:03:48;;;;;;;8.00;3.30;;;;;;;29.10;100.00;99208.72;1661877;86;21111;-69
2021/06/19 11:06:25;;;;;;;6.08;3.10;;;;;;;29.23;100.00;99208.58;1661063;86;20979;-68
2021/06/19 11:09:19;;;;;;;21.15;4.60;;;;;;;29.32;100.00;99204.60;1661943;86;21458;-68
2021/06/19 11:12:05;;;;;;;9.73;2.52;;;;;;;29.37;100.00;99194.75;1661702;86;21067;-69
2021/06/19 11:14:47;;;;;;;4.72;2.45;;;;;;;29.45;100.00;99199.08;1661891;86;20880;-67
2021/06/19 11:17:33;;;;;;;12.37;2.45;;;;;;;29.57;100.00;99200.78;1661805;86;21518;-68
2021/06/19 11:20:16;;;;;;;3.65;2.00;;;;;;;29.72;100.00;99200.84;1661539;86;20995;-68
2021/06/19 11:23:02;;;;;;;2.27;1.72;;;;;;;29.71;100.00;99191.46;1661624;86;20904;-68
2021/06/19 11:25:50;;;;;;;5.58;2.55;;;;;;;29.74;100.00;99195.28;1661855;86;20927;-68
2021/06/19 11:28:12;;;;;;;4.25;2.10;;;;;;;29.82;99.21;99183.79;1661681;86;20947;-68
2021/06/19 11:30:43;;;;;;;9.18;2.15;;;;;;;29.91;100.00;99181.15;1661945;86;21814;-68
2021/06/19 11:33:25;;;;;;;4.72;2.10;;;;;;;29.94;100.00;99186.33;1661517;86;20903;-67
2021/06/19 11:36:07;;;;;;;2.80;1.90;;;;;;;29.72;99.19;99180.45;1661907;86;20998;-69
2021/06/19 11:38:56;;;;;;;3.85;1.92;;;;;;;29.70;100.00;99181.58;1661682;86;20983;-70
2021/06/19 11:41:36;;;;;;;11.18;2.10;;;;;;;29.77;100.00;99175.49;1661845;86;20947;-66